Time;durP1;ratioP1;P1;durP2;ratioP2;P2;SDS_P1;SDS_P2;PMS_P1;PMS_P2;Temp;Humidity;BMP_temperature;BMP_pressure;BME280_temperature;BME280_humidity;BME280_pressure;Samples;Min_cycle;Max_cycle;Signal;HPM_P1;HPM_P2
2021/03/07 00:00:16;;;;;;;7.82;5.45;;;;;;;14.25;16.49;95532.44;5138665;27;20047;-51
2021/03/07 00:02:44;;;;;;;8.05;5.65;;;;;;;14.54;15.84;95535.00;5137861;27;20043;-52
2021/03/07 00:05:12;;;;;;;9.77;5.30;;;;;;;14.52;16.27;95537.13;5138694;27;20469;-50
2021/03/07 00:07:39;;;;;;;5.70;4.88;;;;;;;14.66;15.95;95538.03;5130270;27;20048;-52
2021/03/07 00:10:08;;;;;;;7.10;5.63;;;;;;;14.42;16.21;95522.25;5117617;28;20442;-52
2021/03/07 00:12:36;;;;;;;6.43;5.13;;;;;;;14.27;16.31;95524.25;5117814;28;20044;-50
2021/03/07 00:15:05;;;;;;;5.80;4.80;;;;;;;14.33;16.32;95525.78;5117785;28;20078;-52
2021/03/07 00:17:33;;;;;;;77.22;58.92;;;;;;;15.12;18.67;95516.34;5122346;27;20050;-49
2021/03/07 00:20:01;;;;;;;13.05;10.00;;;;;;;14.85;15.70;95513.56;5109485;28;20044;-51
2021/03/07 00:22:29;;;;;;;8.80;6.05;;;;;;;14.47;16.42;95518.78;5096526;28;20477;-52
2021/03/07 00:24:56;;;;;;;7.57;5.50;;;;;;;14.66;16.33;95524.88;5096545;28;20078;-52
2021/03/07 00:27:23;;;;;;;6.63;5.05;;;;;;;14.30;16.37;95518.44;5106386;27;20047;-52
2021/03/07 00:29:50;;;;;;;7.70;5.38;;;;;;;14.29;16.62;95524.75;5137163;27;20476;-50
2021/03/07 00:32:18;;;;;;;7.03;5.22;;;;;;;14.29;16.41;95527.38;5137993;27;20438;-52
2021/03/07 00:34:45;;;;;;;7.07;5.25;;;;;;;14.48;16.83;95515.09;5138005;27;20043;-54
2021/03/07 00:37:13;;;;;;;9.02;5.32;;;;;;;14.19;16.59;95515.94;5134651;27;20051;-52
2021/03/07 00:39:40;;;;;;;7.25;5.60;;;;;;;14.45;16.37;95513.03;5116860;28;20048;-53
2021/03/07 00:42:08;;;;;;;7.32;5.38;;;;;;;14.07;16.95;95523.44;5117274;28;20070;-54
2021/03/07 00:44:35;;;;;;;6.25;5.22;;;;;;;13.94;16.69;95518.84;5117198;28;20054;-52
2021/03/07 00:47:02;;;;;;;8.48;5.95;;;;;;;14.24;16.49;95514.31;5116795;28;20047;-50
2021/03/07 00:49:31;;;;;;;8.32;5.28;;;;;;;13.98;16.94;95509.31;5117325;28;20051;-53
2021/03/07 00:51:59;;;;;;;7.30;5.13;;;;;;;14.12;16.76;95507.59;5117177;28;20047;-51
2021/03/07 00:54:26;;;;;;;11.32;5.80;;;;;;;13.88;16.48;95504.19;5098567;28;20315;-50
2021/03/07 00:56:54;;;;;;;6.85;5.10;;;;;;;13.74;17.11;95500.63;5116929;28;20507;-51
2021/03/07 00:59:22;;;;;;;6.82;5.38;;;;;;;14.02;16.70;95504.28;5096687;28;20059;-50
2021/03/07 01:01:50;;;;;;;8.55;6.13;;;;;;;13.79;16.42;95498.75;5096539;28;20390;-54
2021/03/07 01:04:17;;;;;;;9.23;6.50;;;;;;;13.54;16.35;95502.41;5096417;28;20451;-51
2021/03/07 01:06:45;;;;;;;10.02;6.57;;;;;;;13.88;16.44;95491.03;5096282;28;20044;-53
2021/03/07 01:09:13;;;;;;;10.82;6.05;;;;;;;13.70;16.76;95494.38;5109897;28;20054;-52
2021/03/07 01:11:40;;;;;;;10.30;6.88;;;;;;;13.63;17.00;95494.72;5116580;28;20059;-49
2021/03/07 01:14:07;;;;;;;9.65;6.35;;;;;;;13.61;17.08;95490.78;5097904;28;20047;-49
2021/03/07 01:16:35;;;;;;;9.00;6.50;;;;;;;13.64;17.05;95496.28;5116457;28;20050;-52
2021/03/07 01:19:02;;;;;;;11.85;6.53;;;;;;;13.87;17.27;95487.63;5116358;28;20075;-54
2021/03/07 01:21:29;;;;;;;8.85;6.35;;;;;;;13.37;17.80;95496.00;5116425;28;20047;-52
2021/03/07 01:23:56;;;;;;;10.10;6.97;;;;;;;13.83;17.24;95494.50;5116557;28;20358;-48
2021/03/07 01:26:23;;;;;;;8.73;6.30;;;;;;;13.26;17.56;95490.03;5116334;28;20051;-48
2021/03/07 01:28:50;;;;;;;8.75;6.05;;;;;;;13.40;16.99;95485.72;5131075;27;20047;-49
2021/03/07 01:31:18;;;;;;;155.13;90.15;;;;;;;13.29;17.51;95489.50;5136937;27;20365;-50
2021/03/07 01:33:45;;;;;;;18.80;13.43;;;;;;;13.65;17.41;95483.91;5136722;27;20047;-48
2021/03/07 01:36:12;;;;;;;10.32;7.25;;;;;;;13.60;17.23;95478.72;5136907;27;20043;-53
2021/03/07 01:38:40;;;;;;;11.45;7.13;;;;;;;13.69;17.22;95477.03;5136610;27;20039;-50
2021/03/07 01:41:07;;;;;;;10.77;7.10;;;;;;;13.35;17.52;95474.47;5101991;27;20059;-48
2021/03/07 01:43:35;;;;;;;9.18;7.07;;;;;;;13.32;18.00;95472.41;5095482;28;20051;-50
2021/03/07 01:46:02;;;;;;;10.00;7.20;;;;;;;12.97;18.11;95471.59;5095668;28;20047;-49
2021/03/07 01:48:29;;;;;;;9.68;7.05;;;;;;;13.37;17.61;95460.00;5107100;28;20060;-50
2021/03/07 01:50:56;;;;;;;9.63;6.60;;;;;;;13.13;18.03;95459.13;5098265;28;20056;-50
2021/03/07 01:53:24;;;;;;;11.07;7.07;;;;;;;13.67;17.59;95458.94;5115719;28;20085;-51
2021/03/07 01:55:51;;;;;;;9.32;7.10;;;;;;;13.15;17.62;95464.88;5116038;28;20434;-52
2021/03/07 01:58:27;;;;;;;11.63;6.80;;;;;;;13.26;17.29;95453.25;5107582;27;20047;-51
2021/03/07 02:00:55;;;;;;;12.48;7.30;;;;;;;13.13;17.49;95456.50;5117419;27;20052;-52
2021/03/07 02:03:24;;;;;;;10.07;6.95;;;;;;;13.47;17.27;95445.97;5095587;28;20052;-51
2021/03/07 02:05:52;;;;;;;10.43;6.47;;;;;;;13.03;17.02;95443.47;5095539;28;20044;-50
2021/03/07 02:08:21;;;;;;;9.75;7.13;;;;;;;13.09;17.71;95452.88;5114348;28;20054;-49
2021/03/07 02:11:00;;;;;;;9.38;6.65;;;;;;;12.80;17.70;95440.50;5107059;28;20048;-50
2021/03/07 02:13:36;;;;;;;10.30;6.70;;;;;;;13.10;16.78;95447.34;5077615;28;20366;-51
2021/03/07 02:16:06;;;;;;;10.32;6.75;;;;;;;12.97;17.33;95448.75;5077843;28;20051;-50
2021/03/07 02:18:35;;;;;;;9.45;6.53;;;;;;;13.34;17.29;95442.19;5081897;28;20067;-51
2021/03/07 02:21:06;;;;;;;8.43;5.75;;;;;;;12.65;18.05;95448.47;5095349;28;20342;-50
2021/03/07 02:23:55;;;;;;;9.18;6.22;;;;;;;12.82;17.47;95448.09;5095356;28;20051;-51
2021/03/07 02:26:22;;;;;;;7.57;5.50;;;;;;;13.15;17.19;95451.75;5095208;28;20047;-52
2021/03/07 02:28:49;;;;;;;7.90;5.68;;;;;;;12.96;17.12;95449.81;5108372;28;20043;-51
2021/03/07 02:31:20;;;;;;;9.05;5.88;;;;;;;12.80;18.28;95445.75;5115483;28;20460;-51
2021/03/07 02:33:47;;;;;;;7.65;6.30;;;;;;;12.63;17.33;95434.81;5097756;28;20047;-50
2021/03/07 02:36:21;;;;;;;9.40;6.53;;;;;;;13.02;17.72;95426.16;5115574;28;20062;-48
2021/03/07 02:38:49;;;;;;;11.70;7.20;;;;;;;12.55;17.70;95422.31;5097502;28;20047;-47
2021/03/07 02:41:18;;;;;;;10.38;6.72;;;;;;;13.12;17.29;95426.06;5097213;28;20054;-49
2021/03/07 02:43:50;;;;;;;11.45;7.13;;;;;;;12.76;17.27;95428.97;5097746;28;20385;-47
2021/03/07 02:46:17;;;;;;;12.15;7.60;;;;;;;12.60;18.72;95430.13;5097568;28;20050;-50
2021/03/07 02:48:48;;;;;;;11.50;7.15;;;;;;;12.27;18.16;95427.19;5097391;28;20075;-51
2021/03/07 02:51:15;;;;;;;10.43;7.28;;;;;;;12.30;18.35;95431.88;5097523;28;20051;-51
2021/03/07 02:53:42;;;;;;;12.82;7.57;;;;;;;12.56;17.87;95429.09;5097445;28;20052;-52
2021/03/07 02:56:13;;;;;;;13.95;8.30;;;;;;;12.02;18.56;95430.72;5097360;28;20446;-50
2021/03/07 02:58:41;;;;;;;12.73;7.90;;;;;;;12.63;17.84;95419.09;5126095;28;20073;-52
2021/03/07 03:01:11;;;;;;;13.43;7.85;;;;;;;12.04;18.35;95423.38;5118002;28;20365;-50
2021/03/07 03:03:40;;;;;;;12.90;8.88;;;;;;;12.30;18.69;95431.09;5137085;27;20061;-52
2021/03/07 03:06:10;;;;;;;14.73;8.20;;;;;;;12.10;18.90;95425.94;5121551;27;20054;-52
2021/03/07 03:08:39;;;;;;;11.98;8.05;;;;;;;12.13;18.62;95436.69;5121526;27;20042;-51
2021/03/07 03:11:07;;;;;;;13.38;9.25;;;;;;;12.65;19.44;95432.72;5105334;27;20385;-53
2021/03/07 03:13:36;;;;;;;9.73;7.07;;;;;;;11.86;18.11;95431.03;5098584;28;20048;-50
2021/03/07 03:16:05;;;;;;;11.25;7.80;;;;;;;12.46;18.78;95429.16;5080651;28;20235;-53
2021/03/07 03:18:34;;;;;;;9.02;6.47;;;;;;;12.25;18.16;95429.28;5098781;27;20058;-50
2021/03/07 03:21:05;;;;;;;10.13;7.00;;;;;;;12.20;18.09;95424.06;5121222;27;20349;-49
2021/03/07 03:23:32;;;;;;;10.20;6.53;;;;;;;12.21;17.92;95423.00;5112046;27;20044;-49
2021/03/07 03:26:00;;;;;;;8.00;5.75;;;;;;;12.27;18.47;95419.31;5098402;28;20048;-48
2021/03/07 03:28:27;;;;;;;9.18;5.95;;;;;;;12.38;18.55;95422.66;5114301;27;20441;-50
2021/03/07 03:30:54;;;;;;;11.00;6.22;;;;;;;12.02;19.60;95427.31;5139319;27;20054;-48
2021/03/07 03:33:23;;;;;;;9.70;6.35;;;;;;;11.86;18.96;95416.09;5115010;27;20047;-49
2021/03/07 03:35:51;;;;;;;12.50;7.70;;;;;;;12.28;18.65;95413.03;5098255;28;20446;-49
2021/03/07 03:38:19;;;;;;;13.73;8.15;;;;;;;11.69;19.16;95419.00;5104386;28;20055;-47
2021/03/07 03:40:49;;;;;;;13.20;9.07;;;;;;;12.15;19.42;95416.22;5118192;28;20043;-49
2021/03/07 03:43:16;;;;;;;12.70;8.57;;;;;;;11.73;19.23;95422.66;5118483;28;20774;-53
2021/03/07 03:45:44;;;;;;;12.32;8.30;;;;;;;12.16;18.78;95419.63;5100477;28;20058;-50
2021/03/07 03:48:19;;;;;;;14.57;8.27;;;;;;;12.16;18.99;95424.88;5105029;27;20070;-51
2021/03/07 03:50:47;;;;;;;14.32;8.52;;;;;;;11.98;19.01;95423.66;5120720;27;20384;-51
2021/03/07 03:53:19;;;;;;;12.35;8.20;;;;;;;12.48;18.60;95422.59;5120784;27;20437;-51
2021/03/07 03:55:48;;;;;;;14.80;7.87;;;;;;;11.98;18.81;95423.66;5120827;27;20047;-54
2021/03/07 03:58:19;;;;;;;14.13;8.82;;;;;;;11.85;19.14;95425.00;5132890;27;20296;-51
2021/03/07 04:00:46;;;;;;;22.70;12.75;;;;;;;11.87;18.64;95422.13;5100354;28;20043;-52
2021/03/07 04:03:15;;;;;;;16.45;10.02;;;;;;;11.90;19.19;95426.81;5100172;28;20373;-52
2021/03/07 04:05:47;;;;;;;14.50;9.57;;;;;;;11.69;19.66;95426.06;5118078;28;20051;-48
2021/03/07 04:08:22;;;;;;;18.97;10.43;;;;;;;11.63;19.34;95421.91;5117632;28;20047;-48
2021/03/07 04:10:51;;;;;;;20.92;12.60;;;;;;;11.56;19.30;95406.47;5117688;28;20048;-54
2021/03/07 04:13:22;;;;;;;28.98;16.13;;;;;;;11.42;19.16;95416.72;5117802;28;20055;-48
2021/03/07 04:15:50;;;;;;;26.75;14.90;;;;;;;11.82;19.60;95427.38;5117268;28;20054;-50
2021/03/07 04:18:18;;;;;;;23.88;12.07;;;;;;;11.46;19.59;95417.00;5104332;27;20043;-51
2021/03/07 04:20:45;;;;;;;19.23;10.75;;;;;;;11.27;20.01;95419.38;5138228;27;20043;-53
2021/03/07 04:23:13;;;;;;;16.77;10.10;;;;;;;11.89;19.22;95417.38;5120254;27;20054;-55
2021/03/07 04:25:40;;;;;;;19.70;9.65;;;;;;;11.66;19.45;95419.53;5120315;27;20047;-52
2021/03/07 04:28:08;;;;;;;15.13;9.30;;;;;;;11.70;19.79;95417.16;5115762;28;20054;-49
2021/03/07 04:30:36;;;;;;;17.70;10.30;;;;;;;11.24;20.64;95416.50;5117488;28;20035;-51
2021/03/07 04:33:04;;;;;;;15.18;10.73;;;;;;;11.34;20.53;95424.31;5106351;28;20435;-52
2021/03/07 04:35:32;;;;;;;17.40;10.55;;;;;;;11.43;20.39;95422.72;5097048;28;20051;-50
2021/03/07 04:38:05;;;;;;;18.20;13.25;;;;;;;11.18;20.32;95420.16;5082786;27;20027;-51
2021/03/07 04:40:33;;;;;;;16.65;11.65;;;;;;;11.21;20.66;95420.44;5113085;27;20048;-50
2021/03/07 04:43:02;;;;;;;16.13;11.82;;;;;;;11.46;19.83;95417.00;5096931;28;20043;-51
2021/03/07 04:45:30;;;;;;;16.88;12.20;;;;;;;11.10;20.39;95414.41;5096968;28;20438;-52
2021/03/07 04:47:57;;;;;;;20.00;10.43;;;;;;;11.21;20.44;95417.03;5098752;27;20370;-53
2021/03/07 04:50:24;;;;;;;23.38;11.25;;;;;;;11.04;20.92;95415.47;5137660;27;20059;-51
2021/03/07 04:52:51;;;;;;;23.10;11.43;;;;;;;11.19;20.62;95416.50;5097790;28;20382;-49
2021/03/07 04:55:18;;;;;;;33.08;11.60;;;;;;;11.50;20.30;95423.25;5096583;28;20070;-54
2021/03/07 04:57:46;;;;;;;29.88;11.35;;;;;;;11.13;20.04;95411.25;5096515;28;20044;-49
2021/03/07 05:00:15;;;;;;;19.23;11.82;;;;;;;10.91;20.94;95413.38;5136786;27;20047;-50
2021/03/07 05:02:44;;;;;;;25.25;13.95;;;;;;;10.65;21.12;95407.34;5132736;27;20051;-51
2021/03/07 05:05:11;;;;;;;24.40;14.02;;;;;;;10.79;21.78;95415.47;5095608;28;20564;-51
2021/03/07 05:07:38;;;;;;;28.83;13.15;;;;;;;10.54;21.91;95415.47;5096272;28;20055;-49
2021/03/07 05:10:07;;;;;;;24.00;14.70;;;;;;;10.84;21.38;95414.69;5116388;27;20383;-54
2021/03/07 05:12:34;;;;;;;25.42;16.15;;;;;;;10.72;21.59;95407.91;5096346;28;20185;-57
2021/03/07 05:15:02;;;;;;;26.13;17.67;;;;;;;10.83;21.31;95416.53;5096211;28;20443;-52
2021/03/07 05:17:29;;;;;;;26.35;18.13;;;;;;;11.18;21.67;95407.06;5078379;28;20059;-49
2021/03/07 05:19:56;;;;;;;30.40;19.27;;;;;;;11.27;22.11;95421.22;5113438;28;20048;-52
2021/03/07 05:22:24;;;;;;;25.50;19.33;;;;;;;11.64;20.67;95419.00;5116431;28;20048;-50
2021/03/07 05:24:51;;;;;;;25.30;17.67;;;;;;;11.49;21.30;95416.44;5102770;28;20051;-52
2021/03/07 05:27:18;;;;;;;23.73;17.05;;;;;;;11.80;19.99;95425.03;5095121;28;20056;-52
2021/03/07 05:29:45;;;;;;;25.23;17.25;;;;;;;12.16;20.81;95425.66;5126575;27;20058;-51
2021/03/07 05:32:12;;;;;;;21.98;15.75;;;;;;;12.18;20.15;95428.78;5111862;27;20067;-49
2021/03/07 05:34:39;;;;;;;24.23;17.10;;;;;;;12.70;19.12;95426.66;5095958;28;20051;-47
2021/03/07 05:37:06;;;;;;;31.80;19.40;;;;;;;13.02;18.94;95426.16;5095792;28;20048;-50
2021/03/07 05:39:33;;;;;;;20.25;14.70;;;;;;;13.51;18.37;95439.09;5113702;27;20070;-52
2021/03/07 05:42:01;;;;;;;22.77;15.05;;;;;;;13.25;18.85;95435.94;5095959;28;20051;-50
2021/03/07 05:44:29;;;;;;;25.17;17.70;;;;;;;13.33;18.54;95426.69;5095726;28;20040;-49
2021/03/07 05:46:56;;;;;;;30.20;20.60;;;;;;;13.66;18.08;95425.81;5095528;28;20048;-52
2021/03/07 05:49:23;;;;;;;36.75;24.15;;;;;;;13.68;18.52;95428.19;5107413;28;20059;-50
2021/03/07 05:51:51;;;;;;;35.45;25.17;;;;;;;13.89;18.33;95445.28;5116185;28;20043;-51
2021/03/07 05:54:18;;;;;;;25.80;18.63;;;;;;;14.14;17.92;95425.81;5098139;28;20043;-52
2021/03/07 05:56:49;;;;;;;22.80;15.90;;;;;;;14.03;18.02;95435.66;5097929;28;20054;-53
2021/03/07 05:59:18;;;;;;;20.67;14.30;;;;;;;14.11;17.89;95432.41;5096806;28;20054;-50
2021/03/07 06:01:45;;;;;;;31.63;19.88;;;;;;;14.29;17.17;95433.47;5116266;28;20055;-50
2021/03/07 06:04:12;;;;;;;14.90;11.07;;;;;;;14.43;17.09;95428.34;5116027;28;20113;-49
2021/03/07 06:06:39;;;;;;;13.93;10.50;;;;;;;14.24;17.25;95430.91;5115777;28;20039;-51
2021/03/07 06:09:20;;;;;;;15.68;10.88;;;;;;;14.75;16.86;95423.13;5123258;28;20050;-53
2021/03/07 06:11:51;;;;;;;14.27;10.95;;;;;;;14.59;17.00;95426.28;5095465;28;20052;-50
2021/03/07 06:14:18;;;;;;;15.80;10.55;;;;;;;14.56;16.57;95422.34;5095431;28;20059;-51
2021/03/07 06:16:59;;;;;;;15.52;10.77;;;;;;;14.68;16.55;95425.34;5095221;28;20052;-51
2021/03/07 06:19:26;;;;;;;13.48;10.20;;;;;;;15.22;16.56;95421.34;5117077;28;20039;-52
2021/03/07 06:21:53;;;;;;;17.70;11.68;;;;;;;15.16;16.71;95419.88;5136282;28;20054;-53
2021/03/07 06:24:38;;;;;;;16.00;11.55;;;;;;;15.53;16.32;95418.16;5136192;28;20051;-53
2021/03/07 06:27:09;;;;;;;20.92;15.48;;;;;;;15.58;15.99;95433.88;5118114;28;20058;-51
2021/03/07 06:29:57;;;;;;;23.55;16.38;;;;;;;15.62;16.08;95427.00;5125388;28;20055;-49
2021/03/07 06:32:29;;;;;;;26.85;19.23;;;;;;;15.71;16.85;95427.88;5115654;28;20051;-52
2021/03/07 06:34:57;;;;;;;23.00;17.60;;;;;;;15.85;16.68;95418.09;5115702;28;20438;-52
2021/03/07 06:37:25;;;;;;;15.48;11.43;;;;;;;15.42;16.16;95423.63;5115646;28;20055;-54
2021/03/07 06:39:52;;;;;;;12.70;9.85;;;;;;;15.56;16.33;95425.50;5119607;27;20469;-51
2021/03/07 06:42:20;;;;;;;11.57;9.45;;;;;;;15.39;16.21;95413.69;5099239;28;20043;-52
2021/03/07 06:44:59;;;;;;;12.38;9.70;;;;;;;15.21;16.26;95427.69;5099230;28;20047;-51
2021/03/07 06:47:27;;;;;;;17.85;10.30;;;;;;;15.76;16.13;95422.50;5098984;28;20059;-52
2021/03/07 06:50:10;;;;;;;14.93;11.00;;;;;;;15.68;16.55;95423.19;5079151;28;20052;-54
2021/03/07 06:52:52;;;;;;;14.70;10.02;;;;;;;16.03;16.44;95417.22;5087179;28;20052;-49
2021/03/07 06:55:21;;;;;;;16.40;11.60;;;;;;;15.95;16.58;95420.56;5087215;28;20044;-51
2021/03/07 06:57:48;;;;;;;15.25;10.05;;;;;;;16.07;15.48;95427.19;5088105;28;20339;-49
2021/03/07 07:00:16;;;;;;;13.75;10.52;;;;;;;16.15;15.45;95423.88;5088898;28;20055;-52
2021/03/07 07:03:08;;;;;;;18.90;10.95;;;;;;;16.19;15.30;95422.19;5093492;28;20055;-55
2021/03/07 07:05:47;;;;;;;19.02;11.57;;;;;;;16.50;15.68;95424.97;5094172;28;20475;-50
2021/03/07 07:08:16;;;;;;;17.67;11.30;;;;;;;16.47;15.91;95415.78;5098687;28;20488;-50
2021/03/07 07:10:55;;;;;;;14.40;10.40;;;;;;;16.76;15.25;95422.56;5090440;28;20048;-53
2021/03/07 07:13:29;;;;;;;17.95;11.88;;;;;;;16.83;15.60;95422.94;5078332;28;20474;-53
2021/03/07 07:15:58;;;;;;;13.95;10.95;;;;;;;16.87;15.30;95416.75;5078331;28;20049;-51
2021/03/07 07:18:26;;;;;;;13.95;10.90;;;;;;;16.69;14.84;95417.72;5078906;28;20052;-50
2021/03/07 07:20:54;;;;;;;11.38;9.15;;;;;;;16.91;14.41;95420.38;5119035;28;20039;-51
2021/03/07 07:23:22;;;;;;;15.07;10.02;;;;;;;17.26;15.09;95415.31;5118943;28;20058;-44
2021/03/07 07:25:50;;;;;;;12.70;10.05;;;;;;;17.65;14.54;95424.34;5118710;28;20055;-52
2021/03/07 07:28:17;;;;;;;16.20;12.63;;;;;;;17.61;14.12;95418.88;5078540;28;20469;-53
2021/03/07 07:31:09;;;;;;;15.18;11.75;;;;;;;17.91;13.88;95419.19;5117393;28;20050;-54
2021/03/07 07:33:46;;;;;;;13.70;11.30;;;;;;;18.58;15.66;95416.22;5098969;28;20477;-50
2021/03/07 07:36:32;;;;;;;13.30;11.05;;;;;;;18.59;15.06;95407.16;5060342;28;20044;-51
2021/03/07 07:38:59;;;;;;;27.83;21.58;;;;;;;19.02;14.63;95412.50;5086838;28;20048;-53
2021/03/07 07:41:38;;;;;;;22.10;15.55;;;;;;;17.93;14.10;95407.19;5060614;28;20374;-51
2021/03/07 07:44:09;;;;;;;18.27;13.27;;;;;;;18.07;14.54;95407.88;5078029;28;20490;-50
2021/03/07 07:46:58;;;;;;;18.67;13.18;;;;;;;17.96;14.03;95405.84;5077571;28;20040;-51
2021/03/07 07:49:54;;;;;;;17.90;13.77;;;;;;;18.36;13.86;95406.53;5109085;27;20066;-50
2021/03/07 07:52:21;;;;;;;19.38;12.75;;;;;;;18.44;14.50;95395.94;5126391;27;20066;-49
2021/03/07 07:55:07;;;;;;;17.98;12.20;;;;;;;18.39;13.46;95396.09;5138770;27;20054;-50
2021/03/07 07:57:40;;;;;;;14.88;10.85;;;;;;;18.38;13.61;95391.09;5138648;27;20441;-50
2021/03/07 08:00:16;;;;;;;13.27;11.15;;;;;;;18.10;13.40;95390.59;5138566;27;20051;-49
2021/03/07 08:02:46;;;;;;;16.38;11.98;;;;;;;18.61;13.30;95379.28;5127232;27;20055;-52
2021/03/07 08:05:26;;;;;;;13.30;11.45;;;;;;;18.11;13.45;95381.56;5097895;28;20473;-55
2021/03/07 08:08:10;;;;;;;13.10;9.85;;;;;;;18.69;13.57;95380.38;5092605;28;20069;-50
2021/03/07 08:10:41;;;;;;;14.95;10.38;;;;;;;18.64;13.27;95383.19;5088060;28;20055;-48
2021/03/07 08:13:28;;;;;;;14.40;11.23;;;;;;;18.80;12.49;95381.66;5097512;28;20366;-49
2021/03/07 08:16:00;;;;;;;14.15;10.65;;;;;;;19.00;13.59;95378.34;5098673;27;20374;-47
2021/03/07 08:18:45;;;;;;;15.88;12.07;;;;;;;18.67;13.02;95372.75;5108912;28;20047;-51
2021/03/07 08:21:17;;;;;;;17.02;11.07;;;;;;;18.52;14.07;95373.22;5107488;28;20055;-51
2021/03/07 08:24:02;;;;;;;16.10;10.63;;;;;;;19.48;12.38;95363.22;5097301;28;20052;-52
2021/03/07 08:26:44;;;;;;;14.68;12.38;;;;;;;19.68;12.48;95358.03;5097203;28;20048;-51
2021/03/07 08:29:36;;;;;;;16.77;10.93;;;;;;;19.52;12.86;95364.94;5108889;28;20055;-50
2021/03/07 08:32:30;;;;;;;10.57;9.35;;;;;;;19.61;13.52;95355.09;5097200;28;20514;-52
2021/03/07 08:34:59;;;;;;;12.45;9.80;;;;;;;19.58;12.86;95361.06;5096873;28;20044;-51
2021/03/07 08:37:28;;;;;;;14.25;10.45;;;;;;;18.83;12.87;95343.94;5097541;27;20481;-42
2021/03/07 08:40:30;;;;;;;12.00;10.02;;;;;;;19.50;12.53;95334.53;5116703;27;20055;-43
2021/03/07 08:43:17;;;;;;;11.13;9.65;;;;;;;19.78;13.50;95325.06;5109569;28;20350;-41
2021/03/07 08:46:05;;;;;;;10.93;9.30;;;;;;;19.75;13.58;95330.22;5096638;28;20047;-43
2021/03/07 08:48:33;;;;;;;13.30;10.85;;;;;;;20.27;13.03;95325.34;5109742;27;20052;-42
2021/03/07 08:51:01;;;;;;;14.70;12.38;;;;;;;20.20;13.05;95312.59;5114946;28;20039;-46
2021/03/07 08:53:33;;;;;;;27.42;21.05;;;;;;;19.92;13.88;95327.47;5116821;28;20050;-42
2021/03/07 08:56:00;;;;;;;16.33;12.82;;;;;;;19.81;13.00;95324.44;5116635;28;20457;-38
2021/03/07 08:58:27;;;;;;;55.88;40.97;;;;;;;20.17;12.64;95315.91;5108223;28;20468;-43
2021/03/07 09:00:56;;;;;;;12.38;11.02;;;;;;;19.67;12.29;95302.66;5112049;28;20450;-43
2021/03/07 09:03:24;;;;;;;12.15;10.30;;;;;;;19.50;12.52;95300.81;5104697;28;20051;-41
2021/03/07 09:05:53;;;;;;;11.88;10.25;;;;;;;19.36;13.02;95292.31;5078384;28;20442;-40
2021/03/07 09:08:25;;;;;;;13.18;11.10;;;;;;;19.38;13.50;95290.13;5105245;28;20048;-43
2021/03/07 09:10:55;;;;;;;14.35;11.80;;;;;;;18.95;13.68;95288.41;5104987;28;20048;-42
2021/03/07 09:13:25;;;;;;;18.40;11.27;;;;;;;19.16;12.90;95287.72;5105984;28;20047;-49
2021/03/07 09:15:53;;;;;;;13.60;11.93;;;;;;;19.22;13.02;95281.16;5095992;28;20059;-46
2021/03/07 09:18:22;;;;;;;14.60;11.82;;;;;;;19.81;12.89;95276.69;5104145;28;20063;-44
2021/03/07 09:20:52;;;;;;;15.13;11.98;;;;;;;20.14;12.60;95276.75;5102796;28;20442;-48
2021/03/07 09:23:26;;;;;;;15.85;11.90;;;;;;;20.19;12.34;95276.53;5096180;28;20051;-49
2021/03/07 09:25:53;;;;;;;14.63;12.43;;;;;;;20.62;12.33;95268.22;5078079;28;20382;-44
2021/03/07 09:28:50;;;;;;;14.90;12.43;;;;;;;20.52;12.48;95267.84;5104572;28;20051;-41
2021/03/07 09:31:22;;;;;;;17.25;11.98;;;;;;;20.88;13.00;95262.66;5087465;28;20054;-42
2021/03/07 09:33:50;;;;;;;13.65;11.48;;;;;;;20.28;12.58;95248.03;5105247;28;20051;-38
2021/03/07 09:36:19;;;;;;;15.18;12.30;;;;;;;20.82;12.58;95258.66;5097759;28;20047;-45
2021/03/07 09:38:52;;;;;;;13.43;11.90;;;;;;;20.09;13.07;95247.75;5116022;28;20043;-41
2021/03/07 09:41:46;;;;;;;13.30;11.52;;;;;;;20.85;12.52;95244.72;5122904;27;20047;-50
2021/03/07 09:44:17;;;;;;;14.50;12.02;;;;;;;20.87;12.22;95241.72;5099500;28;20054;-66
2021/03/07 09:46:48;;;;;;;13.48;11.65;;;;;;;20.70;12.46;95236.59;5116233;28;20043;-52
2021/03/07 09:49:23;;;;;;;12.32;10.57;;;;;;;21.09;12.46;95232.56;5109485;28;20466;-53
2021/03/07 09:51:52;;;;;;;20.20;14.85;;;;;;;21.16;11.72;95240.75;5103895;27;20043;-48
2021/03/07 09:54:20;;;;;;;13.00;11.60;;;;;;;20.68;11.91;95223.63;5118559;27;20051;-50
2021/03/07 09:56:52;;;;;;;14.07;10.73;;;;;;;20.96;12.13;95217.69;5101512;27;20059;-55
2021/03/07 09:59:34;;;;;;;12.65;10.88;;;;;;;20.90;12.15;95220.56;5095551;28;20051;-50
2021/03/07 10:02:05;;;;;;;20.08;12.60;;;;;;;20.84;12.58;95216.59;5106024;27;20357;-51
2021/03/07 10:04:41;;;;;;;12.60;11.30;;;;;;;20.85;13.36;95212.03;5131145;27;20043;-51
2021/03/07 10:07:12;;;;;;;12.50;11.27;;;;;;;21.24;12.79;95205.31;5095808;28;20044;-49
2021/03/07 10:09:57;;;;;;;13.52;11.85;;;;;;;20.76;13.02;95204.16;5096425;28;20051;-51
2021/03/07 10:12:25;;;;;;;14.23;11.52;;;;;;;21.01;12.85;95198.88;5122632;27;20047;-50
2021/03/07 10:14:56;;;;;;;14.73;11.88;;;;;;;21.29;12.34;95194.47;5117944;28;20074;-53
2021/03/07 10:17:34;;;;;;;12.27;11.05;;;;;;;21.38;12.70;95187.16;5102752;28;20375;-55
2021/03/07 10:20:08;;;;;;;42.95;31.38;;;;;;;21.58;12.76;95184.66;5095547;28;20336;-67
2021/03/07 10:22:43;;;;;;;21.35;17.08;;;;;;;21.13;12.90;95174.97;5104916;28;20047;-67
2021/03/07 10:25:31;;;;;;;18.80;12.68;;;;;;;21.16;12.76;95168.97;5115829;28;20036;-51
2021/03/07 10:28:08;;;;;;;15.82;11.55;;;;;;;21.35;13.41;95166.56;5115791;28;20473;-53
2021/03/07 10:30:38;;;;;;;13.88;11.10;;;;;;;21.42;12.55;95161.44;5115800;28;20603;-63
2021/03/07 10:33:08;;;;;;;13.60;11.65;;;;;;;20.93;13.11;95152.69;5114429;28;20464;-61
2021/03/07 10:35:36;;;;;;;14.77;11.43;;;;;;;21.08;13.36;95145.91;5115449;28;20073;-61
2021/03/07 10:38:03;;;;;;;12.95;11.55;;;;;;;21.45;12.83;95139.47;5115758;28;20044;-65
2021/03/07 10:40:35;;;;;;;22.60;19.95;;;;;;;21.64;12.55;95135.44;5106355;28;20054;-51
2021/03/07 10:43:05;;;;;;;25.52;21.17;;;;;;;22.02;12.46;95127.75;5120182;28;20476;-56
2021/03/07 10:45:39;;;;;;;27.90;17.42;;;;;;;22.69;11.52;95130.63;5109009;28;20044;-54
2021/03/07 10:48:11;;;;;;;14.52;12.40;;;;;;;21.92;12.30;95124.81;5095124;28;20462;-46
2021/03/07 10:50:43;;;;;;;13.77;12.25;;;;;;;21.71;12.62;95109.03;5095514;28;20323;-51
2021/03/07 10:53:10;;;;;;;16.13;13.50;;;;;;;21.73;11.83;95112.13;5110486;28;20047;-47
2021/03/07 10:55:37;;;;;;;14.88;12.15;;;;;;;21.67;12.42;95108.16;5135816;28;20054;-44
2021/03/07 10:58:05;;;;;;;15.05;11.73;;;;;;;21.87;12.01;95099.22;5118058;28;20050;-50
2021/03/07 11:00:33;;;;;;;13.32;11.65;;;;;;;21.94;12.15;95086.09;5136078;28;20468;-54
2021/03/07 11:03:00;;;;;;;79.55;61.58;;;;;;;21.74;11.96;95087.06;5110257;28;20079;-45
2021/03/07 11:05:28;;;;;;;15.55;12.23;;;;;;;22.37;12.99;95081.88;5096455;28;20050;-52
2021/03/07 11:07:55;;;;;;;15.75;12.23;;;;;;;22.25;12.17;95073.97;5115479;28;20450;-66
2021/03/07 11:10:23;;;;;;;13.65;12.18;;;;;;;22.36;12.81;95062.44;5115456;28;20047;-47
2021/03/07 11:12:50;;;;;;;17.90;12.50;;;;;;;21.99;12.68;95059.22;5115816;28;20048;-50
2021/03/07 11:15:18;;;;;;;15.23;12.48;;;;;;;22.28;12.09;95062.63;5134551;28;20043;-50
2021/03/07 11:17:45;;;;;;;15.05;11.88;;;;;;;22.00;11.50;95052.00;5124401;27;20071;-49
2021/03/07 11:20:13;;;;;;;15.95;12.77;;;;;;;22.02;11.89;95050.56;5093912;28;20062;-64
2021/03/07 11:22:41;;;;;;;13.95;12.10;;;;;;;21.76;12.41;95037.72;5075777;28;20040;-54
2021/03/07 11:25:09;;;;;;;14.15;12.48;;;;;;;22.18;13.03;95036.53;5108242;28;20047;-47
2021/03/07 11:27:36;;;;;;;14.82;12.48;;;;;;;22.12;12.19;95028.78;5110309;28;20050;-68
2021/03/07 11:30:04;;;;;;;17.77;11.65;;;;;;;22.06;12.59;95035.47;5125690;27;20050;-68
2021/03/07 11:32:31;;;;;;;14.13;11.60;;;;;;;21.89;12.76;95032.34;5111436;28;20058;-68
2021/03/07 11:34:58;;;;;;;14.60;12.20;;;;;;;21.82;13.24;95020.38;5097999;28;20051;-68
2021/03/07 11:37:26;;;;;;;17.35;13.50;;;;;;;21.66;13.09;95024.16;5099480;28;20044;-62